Time;durP1;ratioP1;P1;durP2;ratioP2;P2;SDS_P1;SDS_P2;PMS_P1;PMS_P2;Temp;Humidity;BMP_temperature;BMP_pressure;BME280_temperature;BME280_humidity;BME280_pressure;Samples;Min_cycle;Max_cycle;Signal;HPM_P1;HPM_P2
2021/01/20 00:02:25;;;;;;;27.55;24.70;;;22.70;68.00;;;;;;4968522;28;20308;-56
2021/01/20 00:04:56;;;;;;;25.48;22.95;;;22.70;68.10;;;;;;4960040;28;20235;-57
2021/01/20 00:07:28;;;;;;;25.60;22.98;;;22.70;68.30;;;;;;4960482;28;20284;-53
2021/01/20 00:09:58;;;;;;;25.65;23.02;;;22.70;68.40;;;;;;4957810;28;20264;-52
2021/01/20 00:12:29;;;;;;;25.52;22.58;;;22.70;68.40;;;;;;4956756;28;20797;-54
2021/01/20 00:14:59;;;;;;;27.02;23.27;;;22.70;68.50;;;;;;4955766;28;20236;-56
2021/01/20 00:17:30;;;;;;;22.77;20.55;;;22.70;68.60;;;;;;4954915;28;20226;-57
2021/01/20 00:20:01;;;;;;;24.17;21.60;;;22.70;68.60;;;;;;4958159;28;20237;-57
2021/01/20 00:22:33;;;;;;;27.05;24.23;;;22.70;68.60;;;;;;4957701;28;20237;-55
2021/01/20 00:25:04;;;;;;;26.77;23.83;;;22.70;68.70;;;;;;4957949;28;20242;-56
2021/01/20 00:27:35;;;;;;;25.90;23.33;;;22.70;68.70;;;;;;4961279;28;20241;-55
2021/01/20 00:30:08;;;;;;;24.15;21.70;;;22.70;68.80;;;;;;4956623;28;20436;-57
2021/01/20 00:32:39;;;;;;;24.40;21.90;;;22.70;69.00;;;;;;4962661;28;20237;-56
2021/01/20 00:35:10;;;;;;;26.08;23.23;;;22.70;69.00;;;;;;4960993;28;20259;-57
2021/01/20 00:37:42;;;;;;;25.83;23.33;;;22.80;69.20;;;;;;4959902;28;20234;-55
2021/01/20 00:40:13;;;;;;;27.10;23.30;;;22.80;69.20;;;;;;4962033;28;20323;-52
2021/01/20 00:42:44;;;;;;;26.15;23.52;;;22.90;69.30;;;;;;4967536;28;20279;-53
2021/01/20 00:45:15;;;;;;;25.25;22.52;;;22.90;70.20;;;;;;4967636;28;20232;-53
2021/01/20 00:47:45;;;;;;;25.10;22.58;;;23.00;69.50;;;;;;4962227;28;20622;-52
2021/01/20 00:50:17;;;;;;;27.45;23.33;;;23.00;69.60;;;;;;4963260;28;20259;-54
2021/01/20 00:52:49;;;;;;;26.15;23.40;;;23.10;69.60;;;;;;4964931;28;20569;-51
2021/01/20 00:55:20;;;;;;;28.38;25.35;;;23.10;69.40;;;;;;4960236;28;20239;-56
2021/01/20 00:57:51;;;;;;;26.35;23.13;;;23.20;69.30;;;;;;4959092;28;20233;-56
2021/01/20 01:00:22;;;;;;;27.38;24.10;;;23.30;69.20;;;;;;4964826;28;20236;-57
2021/01/20 01:02:53;;;;;;;27.85;25.05;;;23.40;69.20;;;;;;4968543;28;20228;-53
2021/01/20 01:05:23;;;;;;;30.58;26.30;;;23.40;69.30;;;;;;4970285;28;20238;-54
2021/01/20 01:07:55;;;;;;;28.70;25.65;;;23.50;69.40;;;;;;4967089;28;20240;-53
2021/01/20 01:10:26;;;;;;;28.27;25.45;;;23.60;69.60;;;;;;4972952;28;20228;-52
2021/01/20 01:12:57;;;;;;;31.83;27.52;;;23.60;69.30;;;;;;4972873;28;20653;-55
2021/01/20 01:15:27;;;;;;;33.20;29.63;;;23.80;69.20;;;;;;4971804;28;20233;-55
2021/01/20 01:17:58;;;;;;;32.30;29.08;;;23.80;68.90;;;;;;4973266;28;20234;-55
2021/01/20 01:20:29;;;;;;;37.95;31.45;;;23.90;68.70;;;;;;4962743;28;20930;-55
2021/01/20 01:23:01;;;;;;;36.53;32.60;;;24.00;68.50;;;;;;4974026;28;20232;-54
2021/01/20 01:25:31;;;;;;;34.78;31.10;;;24.10;68.10;;;;;;4974138;28;20253;-57
2021/01/20 01:28:03;;;;;;;37.58;31.60;;;24.20;67.90;;;;;;4962519;28;20241;-56
2021/01/20 01:30:33;;;;;;;32.47;29.02;;;24.30;67.70;;;;;;4970659;28;20324;-57
2021/01/20 01:33:04;;;;;;;30.80;27.58;;;24.40;67.60;;;;;;4973432;28;20228;-53
2021/01/20 01:35:35;;;;;;;27.85;25.05;;;24.40;67.10;;;;;;4973569;28;20286;-57
2021/01/20 01:38:07;;;;;;;31.17;26.45;;;24.50;66.80;;;;;;4970929;28;20759;-55
2021/01/20 01:40:38;;;;;;;30.20;27.08;;;24.60;66.40;;;;;;4969807;28;20704;-56
2021/01/20 01:43:08;;;;;;;41.20;35.72;;;24.70;66.50;;;;;;4968253;28;20236;-57
2021/01/20 01:45:39;;;;;;;41.45;36.90;;;24.80;66.50;;;;;;4970186;28;20656;-56
2021/01/20 01:48:09;;;;;;;40.90;35.38;;;24.90;66.60;;;;;;4966871;28;20252;-57
2021/01/20 01:50:40;;;;;;;36.40;32.55;;;25.00;66.50;;;;;;4967547;28;20625;-57
2021/01/20 01:53:13;;;;;;;34.78;31.08;;;25.10;66.40;;;;;;4966740;28;20236;-55
2021/01/20 01:55:43;;;;;;;33.80;29.73;;;25.20;65.90;;;;;;4973202;28;20285;-56
2021/01/20 01:58:15;;;;;;;33.95;30.30;;;25.30;65.70;;;;;;4962150;28;20263;-57
2021/01/20 02:00:46;;;;;;;33.88;30.38;;;25.40;65.20;;;;;;4965026;28;20253;-54
2021/01/20 02:03:16;;;;;;;34.92;29.15;;;25.50;64.60;;;;;;4972879;28;20289;-55
2021/01/20 02:05:47;;;;;;;29.42;26.10;;;25.60;64.30;;;;;;4982517;28;20229;-55
2021/01/20 02:08:19;;;;;;;26.88;24.27;;;25.70;63.50;;;;;;4965444;28;20312;-55
2021/01/20 02:10:52;;;;;;;27.33;24.70;;;25.90;63.20;;;;;;4970357;28;20749;-56
2021/01/20 02:13:31;;;;;;;25.52;22.92;;;25.90;62.60;;;;;;4969563;28;20228;-52
2021/01/20 02:16:05;;;;;;;25.02;21.48;;;26.10;61.00;;;;;;4963636;28;20311;-53
2021/01/20 02:18:37;;;;;;;24.73;22.42;;;26.20;60.90;;;;;;4970494;28;20240;-55
2021/01/20 02:21:44;;;;;;;22.60;20.40;;;26.30;59.50;;;;;;4969991;28;20576;-51
2021/01/20 02:24:17;;;;;;;23.25;20.88;;;26.40;59.50;;;;;;4923665;29;20244;-57
2021/01/20 02:26:56;;;;;;;24.33;21.83;;;26.60;58.30;;;;;;4913982;28;20296;-56
2021/01/20 02:29:31;;;;;;;22.17;20.13;;;26.70;57.60;;;;;;4919866;28;20289;-54
2021/01/20 02:32:03;;;;;;;23.05;20.85;;;26.80;57.10;;;;;;4923390;28;20936;-56
2021/01/20 02:34:34;;;;;;;22.55;20.25;;;27.00;56.60;;;;;;4867788;28;20231;-56
2021/01/20 02:37:05;;;;;;;22.67;20.38;;;27.10;56.50;;;;;;4866857;28;20801;-56
2021/01/20 02:39:35;;;;;;;22.48;20.20;;;27.20;56.50;;;;;;4879763;28;20262;-54
2021/01/20 02:42:06;;;;;;;22.77;20.58;;;27.30;56.50;;;;;;4942740;28;20240;-55
2021/01/20 02:44:37;;;;;;;27.08;21.55;;;27.40;56.50;;;;;;4884869;28;20235;-55
2021/01/20 02:47:10;;;;;;;22.98;20.38;;;27.50;56.40;;;;;;4874928;28;20409;-57
2021/01/20 02:49:40;;;;;;;22.88;20.58;;;27.70;56.30;;;;;;4931862;28;20226;-56
2021/01/20 02:52:14;;;;;;;21.98;19.80;;;27.80;56.40;;;;;;4869704;28;20235;-57
2021/01/20 02:54:45;;;;;;;20.90;18.80;;;27.90;55.00;;;;;;4868107;28;20680;-53
2021/01/20 02:57:15;;;;;;;24.98;21.50;;;28.00;54.60;;;;;;4888972;29;20708;-51
2021/01/20 02:59:47;;;;;;;23.23;20.83;;;28.00;54.00;;;;;;4885090;29;20239;-54
2021/01/20 03:04:48;;;;;;;24.15;21.70;;;28.30;54.40;;;;;;4986267;28;20610;-48
2021/01/20 03:07:19;;;;;;;26.67;23.60;;;28.30;53.90;;;;;;4986607;28;20239;-49
2021/01/20 03:09:49;;;;;;;26.02;23.25;;;28.40;53.70;;;;;;4988156;28;20239;-50
2021/01/20 03:12:23;;;;;;;26.02;23.38;;;28.50;53.80;;;;;;4994571;28;20231;-50
2021/01/20 03:14:54;;;;;;;26.63;23.85;;;28.60;53.90;;;;;;4932101;29;20225;-50
2021/01/20 03:17:24;;;;;;;23.92;21.50;;;28.60;53.20;;;;;;4922061;28;20242;-48
2021/01/20 03:19:56;;;;;;;23.13;20.83;;;28.80;53.20;;;;;;4927740;28;20233;-49
2021/01/20 03:22:27;;;;;;;24.58;22.02;;;28.90;52.50;;;;;;4930672;28;20260;-51
2021/01/20 03:24:57;;;;;;;23.55;21.05;;;28.90;51.30;;;;;;4929853;28;20242;-50
2021/01/20 03:27:27;;;;;;;22.88;20.67;;;29.00;52.10;;;;;;4923042;29;20305;-53
2021/01/20 03:29:58;;;;;;;21.23;19.10;;;29.00;51.60;;;;;;4929493;28;20229;-52
2021/01/20 03:32:29;;;;;;;22.25;20.08;;;29.10;51.60;;;;;;4928238;29;20294;-50
2021/01/20 03:35:01;;;;;;;20.77;18.67;;;29.20;51.40;;;;;;4934410;28;20229;-52
2021/01/20 03:37:32;;;;;;;20.55;18.60;;;29.30;50.90;;;;;;4929757;28;20657;-49
2021/01/20 03:40:02;;;;;;;23.83;21.48;;;29.40;51.10;;;;;;4923590;29;20249;-49
2021/01/20 03:42:33;;;;;;;21.45;19.35;;;29.40;50.40;;;;;;4923377;29;20225;-51
2021/01/20 03:45:04;;;;;;;18.60;16.90;;;29.50;49.80;;;;;;4939159;28;20325;-53
2021/01/20 03:47:35;;;;;;;19.35;17.55;;;29.60;49.70;;;;;;4985358;28;20263;-52
2021/01/20 03:50:08;;;;;;;19.50;17.70;;;29.70;49.50;;;;;;4990261;28;20660;-51
2021/01/20 03:52:38;;;;;;;22.50;20.35;;;29.80;49.30;;;;;;4982795;28;20310;-51
2021/01/20 03:55:09;;;;;;;20.92;18.88;;;29.80;49.00;;;;;;4990056;28;20243;-51
2021/01/20 03:57:40;;;;;;;19.88;18.10;;;29.90;49.10;;;;;;4984202;28;20314;-50
2021/01/20 04:00:12;;;;;;;20.33;18.42;;;29.90;48.90;;;;;;4990473;28;20231;-48
2021/01/20 04:02:43;;;;;;;19.05;17.20;;;30.00;48.60;;;;;;4999224;28;20273;-48
2021/01/20 04:05:15;;;;;;;19.60;17.08;;;30.10;48.50;;;;;;4989892;28;21009;-50
2021/01/20 04:07:46;;;;;;;19.08;17.38;;;30.10;48.40;;;;;;4982962;28;20246;-50
2021/01/20 04:10:16;;;;;;;18.00;16.40;;;30.10;47.70;;;;;;4988056;28;20271;-52
2021/01/20 04:12:46;;;;;;;19.17;17.42;;;30.20;47.60;;;;;;4982637;28;20239;-49
2021/01/20 04:15:17;;;;;;;17.90;16.30;;;30.30;47.50;;;;;;4990795;28;20666;-53
2021/01/20 04:17:48;;;;;;;20.02;18.13;;;30.40;47.90;;;;;;4982342;28;20354;-50
2021/01/20 04:20:20;;;;;;;19.85;18.05;;;30.40;48.20;;;;;;4990045;28;20252;-49
2021/01/20 04:22:50;;;;;;;19.70;17.83;;;30.50;47.50;;;;;;4988012;28;20334;-50
2021/01/20 04:25:20;;;;;;;23.85;21.50;;;30.50;47.70;;;;;;4989377;28;20714;-50
2021/01/20 04:27:51;;;;;;;21.85;19.55;;;30.60;47.10;;;;;;4983322;28;21469;-50
2021/01/20 04:30:22;;;;;;;21.17;19.27;;;30.70;47.40;;;;;;4989724;28;20287;-49
2021/01/20 04:32:53;;;;;;;25.13;21.70;;;30.70;47.50;;;;;;4977962;28;20238;-49
2021/01/20 04:35:25;;;;;;;24.52;19.88;;;30.80;47.20;;;;;;4989477;28;20228;-53
2021/01/20 04:37:55;;;;;;;23.52;21.23;;;30.80;47.20;;;;;;4980374;28;20228;-51
2021/01/20 04:40:25;;;;;;;21.75;19.70;;;30.90;47.00;;;;;;4987168;28;20295;-50
2021/01/20 04:42:56;;;;;;;22.60;20.45;;;31.00;47.40;;;;;;4983173;28;20302;-51
2021/01/20 04:45:26;;;;;;;23.85;21.45;;;31.00;47.20;;;;;;4989594;28;20355;-48
2021/01/20 04:47:57;;;;;;;28.48;25.80;;;31.10;47.70;;;;;;4983750;28;21089;-49
2021/01/20 04:50:29;;;;;;;28.67;25.83;;;31.10;46.80;;;;;;4989299;28;20240;-51
2021/01/20 04:53:01;;;;;;;26.15;23.45;;;31.10;47.20;;;;;;4982680;28;20231;-51
2021/01/20 04:55:31;;;;;;;25.98;23.58;;;31.20;47.60;;;;;;4986391;28;20690;-54
2021/01/20 04:58:03;;;;;;;25.73;23.33;;;31.20;47.10;;;;;;4946272;28;20229;-55
2021/01/20 05:00:36;;;;;;;25.27;22.67;;;31.20;46.80;;;;;;4948680;28;20247;-54
2021/01/20 05:03:07;;;;;;;22.77;20.58;;;31.20;46.70;;;;;;4960031;28;20286;-53
2021/01/20 05:05:39;;;;;;;21.73;19.73;;;31.30;46.70;;;;;;4984915;28;20363;-48
2021/01/20 05:08:10;;;;;;;21.10;19.20;;;31.40;46.90;;;;;;4986531;28;20234;-49
2021/01/20 05:10:40;;;;;;;22.70;20.42;;;31.40;46.60;;;;;;4987328;28;20266;-49
2021/01/20 05:13:25;;;;;;;21.60;19.38;;;31.50;46.50;;;;;;4985838;28;20232;-50
2021/01/20 05:15:55;;;;;;;21.75;19.63;;;31.50;46.40;;;;;;4928816;29;20239;-53
2021/01/20 05:18:25;;;;;;;21.52;19.60;;;31.60;45.90;;;;;;4931872;29;20780;-55
2021/01/20 05:20:58;;;;;;;20.20;18.30;;;31.70;46.00;;;;;;4920213;29;20321;-51
2021/01/20 05:23:29;;;;;;;19.20;17.42;;;31.80;45.90;;;;;;4954237;28;20239;-51
2021/01/20 05:26:00;;;;;;;17.05;15.45;;;31.80;45.70;;;;;;4966020;28;20683;-55
2021/01/20 05:28:30;;;;;;;17.70;15.95;;;31.80;45.90;;;;;;4965942;28;20761;-51
2021/01/20 05:31:01;;;;;;;18.35;16.60;;;31.90;45.80;;;;;;4928654;29;20239;-53
2021/01/20 05:33:35;;;;;;;17.58;15.77;;;31.90;45.60;;;;;;4926473;29;20238;-53
2021/01/20 05:36:10;;;;;;;20.65;18.35;;;32.00;45.60;;;;;;4871376;29;20283;-51
2021/01/20 05:38:42;;;;;;;18.50;16.80;;;32.00;45.00;;;;;;4873104;29;20239;-53
2021/01/20 05:41:22;;;;;;;18.42;16.73;;;32.10;45.30;;;;;;4857903;29;20314;-53
2021/01/20 05:43:53;;;;;;;18.60;16.90;;;32.10;44.80;;;;;;4872384;29;20276;-53
2021/01/20 05:46:41;;;;;;;18.42;16.63;;;32.20;45.10;;;;;;4889347;29;20694;-50
2021/01/20 05:49:24;;;;;;;19.98;18.17;;;32.20;44.90;;;;;;4933138;29;20281;-53
2021/01/20 05:51:56;;;;;;;19.77;17.77;;;32.30;45.00;;;;;;4927358;29;20234;-52
2021/01/20 05:54:33;;;;;;;18.73;16.90;;;32.30;44.90;;;;;;4932814;29;20288;-53
2021/01/20 05:57:13;;;;;;;18.20;16.38;;;32.30;44.50;;;;;;4930953;29;20240;-49
2021/01/20 05:59:44;;;;;;;19.48;17.67;;;32.30;45.00;;;;;;4928917;29;20284;-51
2021/01/20 06:02:16;;;;;;;19.25;17.65;;;32.40;44.50;;;;;;4955991;28;20323;-54
2021/01/20 06:04:47;;;;;;;18.73;16.85;;;32.40;44.40;;;;;;4969416;28;20232;-51
2021/01/20 06:07:19;;;;;;;20.60;18.55;;;32.40;44.70;;;;;;4986907;28;20306;-51
2021/01/20 06:09:49;;;;;;;16.55;15.15;;;32.40;44.30;;;;;;5012375;28;20251;-49
2021/01/20 06:12:20;;;;;;;19.80;18.00;;;32.40;44.40;;;;;;5001294;28;20236;-50
2021/01/20 06:14:50;;;;;;;17.67;16.08;;;32.40;44.00;;;;;;5011984;28;20241;-51
2021/01/20 06:17:30;;;;;;;18.65;17.02;;;32.40;44.00;;;;;;5004293;28;20237;-51
2021/01/20 06:20:03;;;;;;;17.50;16.00;;;32.40;44.00;;;;;;5011161;28;20251;-53
2021/01/20 06:22:35;;;;;;;17.65;15.85;;;32.50;43.80;;;;;;5009195;28;20248;-49
2021/01/20 06:25:06;;;;;;;19.75;17.95;;;32.50;43.90;;;;;;5011510;28;20318;-49
2021/01/20 06:27:41;;;;;;;20.05;18.25;;;32.50;43.50;;;;;;5011313;28;20227;-52
2021/01/20 06:30:15;;;;;;;18.30;16.55;;;32.50;43.20;;;;;;5011261;28;20293;-51
2021/01/20 06:32:47;;;;;;;17.67;15.95;;;32.50;43.40;;;;;;5011078;28;20227;-50
2021/01/20 06:35:18;;;;;;;16.33;14.85;;;32.50;43.70;;;;;;5012219;28;20231;-48
2021/01/20 06:37:49;;;;;;;16.15;14.65;;;32.50;43.60;;;;;;5011745;28;20264;-52
2021/01/20 06:40:50;;;;;;;16.83;15.32;;;32.60;43.60;;;;;;5009903;28;20251;-50
2021/01/20 06:43:42;;;;;;;16.85;15.45;;;32.60;43.80;;;;;;5011428;28;20231;-52
2021/01/20 06:46:27;;;;;;;17.35;15.70;;;32.70;42.30;;;;;;5011645;28;20231;-52
2021/01/20 06:49:08;;;;;;;17.75;16.00;;;32.70;43.60;;;;;;5008145;28;20638;-50
2021/01/20 06:51:39;;;;;;;19.02;17.23;;;32.70;43.60;;;;;;5009971;28;20227;-49
2021/01/20 06:54:12;;;;;;;17.20;15.68;;;32.70;43.20;;;;;;5011756;28;20324;-54
2021/01/20 06:56:46;;;;;;;18.00;16.40;;;32.70;43.40;;;;;;5010646;28;20532;-53
2021/01/20 06:59:21;;;;;;;17.48;15.68;;;32.70;43.30;;;;;;5010143;28;20235;-54
2021/01/20 07:02:13;;;;;;;17.33;15.75;;;32.70;43.40;;;;;;5011121;28;20272;-52
2021/01/20 07:05:06;;;;;;;17.73;15.93;;;32.70;42.90;;;;;;4985174;28;20434;-53
2021/01/20 07:08:03;;;;;;;21.88;16.75;;;32.70;43.40;;;;;;4991115;28;20228;-52
2021/01/20 07:11:08;;;;;;;19.23;17.42;;;32.70;42.70;;;;;;4991300;28;20231;-54
2021/01/20 07:13:40;;;;;;;16.40;14.90;;;32.70;42.90;;;;;;4981094;28;20224;-52
2021/01/20 07:16:12;;;;;;;16.25;14.85;;;32.70;43.30;;;;;;4991851;28;20650;-52
2021/01/20 07:18:43;;;;;;;16.23;14.60;;;32.70;43.20;;;;;;4984126;28;20228;-51
2021/01/20 07:21:14;;;;;;;18.20;16.40;;;32.80;43.00;;;;;;4991159;28;20236;-51
2021/01/20 07:23:44;;;;;;;17.20;15.73;;;32.80;43.00;;;;;;4998292;28;20235;-53
2021/01/20 07:26:15;;;;;;;16.17;14.77;;;32.80;43.10;;;;;;4990552;28;20660;-52
2021/01/20 07:28:46;;;;;;;16.05;14.65;;;32.80;43.00;;;;;;4983118;28;20228;-49
2021/01/20 07:31:17;;;;;;;15.50;14.10;;;32.80;42.80;;;;;;4990876;28;20327;-51
2021/01/20 07:33:52;;;;;;;15.25;14.00;;;32.80;42.50;;;;;;4988570;28;20583;-50
2021/01/20 07:36:23;;;;;;;15.65;14.10;;;32.80;42.40;;;;;;4991473;28;20735;-49
2021/01/20 07:38:53;;;;;;;15.93;14.35;;;32.80;42.70;;;;;;4990114;28;20299;-50
2021/01/20 07:41:25;;;;;;;14.50;13.30;;;32.90;42.40;;;;;;4990349;28;20235;-53
2021/01/20 07:44:08;;;;;;;15.65;14.35;;;32.90;42.50;;;;;;4989472;28;20311;-53
2021/01/20 07:46:38;;;;;;;16.30;14.75;;;32.90;42.20;;;;;;4990116;28;20232;-53
2021/01/20 07:49:13;;;;;;;15.85;14.45;;;32.90;42.40;;;;;;4990026;28;20689;-50
2021/01/20 07:51:43;;;;;;;17.80;16.10;;;32.90;42.40;;;;;;4988592;28;20294;-49
2021/01/20 07:54:14;;;;;;;17.20;15.45;;;32.90;42.40;;;;;;4988831;28;20322;-55
2021/01/20 07:56:45;;;;;;;15.73;14.23;;;32.90;42.30;;;;;;4988915;28;20232;-52
2021/01/20 07:59:17;;;;;;;15.77;14.38;;;32.90;42.70;;;;;;4890620;29;21129;-54
2021/01/20 08:01:48;;;;;;;15.27;13.98;;;32.90;42.80;;;;;;4890644;29;20239;-51
2021/01/20 08:04:22;;;;;;;14.75;13.48;;;32.90;42.70;;;;;;4912715;29;20731;-53
2021/01/20 08:06:53;;;;;;;16.80;15.00;;;32.90;42.70;;;;;;4921897;29;20665;-52
2021/01/20 08:09:35;;;;;;;16.70;15.18;;;32.90;42.70;;;;;;4930986;29;20238;-51
2021/01/20 08:12:07;;;;;;;14.98;13.50;;;32.80;42.60;;;;;;4884321;29;20243;-55
2021/01/20 08:14:42;;;;;;;16.92;15.30;;;32.80;42.90;;;;;;4890316;29;20255;-52
2021/01/20 08:17:14;;;;;;;15.18;13.80;;;32.70;42.60;;;;;;4885569;29;20257;-53
2021/01/20 08:19:44;;;;;;;17.08;15.38;;;32.70;42.80;;;;;;4887675;29;20234;-50
2021/01/20 08:22:15;;;;;;;15.80;14.30;;;32.70;42.70;;;;;;4885090;29;20279;-49
2021/01/20 08:24:49;;;;;;;15.70;14.30;;;32.60;42.60;;;;;;4918331;29;20701;-52
2021/01/20 08:27:26;;;;;;;15.82;14.43;;;32.60;43.10;;;;;;4925566;29;20237;-53
2021/01/20 08:29:58;;;;;;;14.70;13.30;;;32.60;43.30;;;;;;4945165;28;20298;-52
2021/01/20 08:32:29;;;;;;;15.68;14.27;;;32.50;43.10;;;;;;4984471;28;20258;-53
2021/01/20 08:35:00;;;;;;;16.13;14.63;;;32.50;43.10;;;;;;4982184;28;20247;-50
2021/01/20 08:37:37;;;;;;;17.00;15.50;;;32.50;43.00;;;;;;4981916;28;20236;-52
2021/01/20 08:40:08;;;;;;;15.38;13.88;;;32.50;43.20;;;;;;4980576;28;20239;-52
2021/01/20 08:42:44;;;;;;;16.77;15.10;;;32.50;43.20;;;;;;4991583;28;20239;-53
2021/01/20 08:45:17;;;;;;;15.25;13.88;;;32.50;43.10;;;;;;5004306;28;20325;-51
2021/01/20 08:47:52;;;;;;;16.75;15.20;;;32.50;43.20;;;;;;5004276;28;20923;-50
2021/01/20 09:01:10;;;;;;;14.95;13.63;;;32.50;42.50;;;;;;5022844;28;20652;-57
2021/01/20 09:03:41;;;;;;;17.92;16.33;;;32.20;44.50;;;;;;4960672;28;20232;-53
2021/01/20 09:06:15;;;;;;;17.33;15.65;;;32.40;44.20;;;;;;4968455;28;20481;-57
2021/01/20 09:08:46;;;;;;;16.17;14.77;;;32.50;44.10;;;;;;4964504;28;20240;-53
2021/01/20 09:11:16;;;;;;;17.42;15.75;;;32.60;44.70;;;;;;4969406;28;20251;-57
2021/01/20 09:13:47;;;;;;;16.00;14.70;;;32.60;43.70;;;;;;4958232;28;20236;-53
2021/01/20 09:16:25;;;;;;;17.13;15.52;;;32.70;43.90;;;;;;4955861;28;20231;-56
2021/01/20 09:18:56;;;;;;;17.02;15.52;;;32.70;43.80;;;;;;4977835;28;20252;-53
2021/01/20 09:21:28;;;;;;;18.13;16.38;;;32.70;43.80;;;;;;4967608;28;20307;-57
2021/01/20 09:23:59;;;;;;;20.63;18.50;;;32.70;43.80;;;;;;4973551;28;20841;-56
2021/01/20 09:26:29;;;;;;;19.05;17.27;;;32.70;43.40;;;;;;4971367;28;20232;-55
2021/01/20 09:29:00;;;;;;;18.75;17.02;;;32.70;43.90;;;;;;4965281;28;20335;-57
2021/01/20 09:31:32;;;;;;;18.83;16.50;;;32.70;44.10;;;;;;4958166;28;20634;-56
2021/01/20 09:34:03;;;;;;;17.98;16.38;;;32.70;44.20;;;;;;4968457;28;20321;-56
2021/01/20 09:36:35;;;;;;;19.40;17.70;;;32.70;44.10;;;;;;5003995;28;20309;-56
2021/01/20 09:39:07;;;;;;;17.60;16.00;;;32.70;44.80;;;;;;5014816;28;20417;-55
2021/01/20 09:41:40;;;;;;;17.25;15.60;;;32.70;45.00;;;;;;5020775;28;20242;-56
2021/01/20 09:44:11;;;;;;;16.25;14.77;;;32.70;44.00;;;;;;5016974;28;20240;-53
2021/01/20 11:03:06;;;;;;;13.38;12.18;;;33.50;41.00;;;;;;5047061;28;20233;-53
2021/01/20 11:05:37;;;;;;;13.30;12.10;;;33.30;41.10;;;;;;5046288;28;20233;-56
2021/01/20 11:08:08;;;;;;;12.85;11.55;;;33.10;41.30;;;;;;5045906;28;20229;-56
2021/01/20 11:10:39;;;;;;;13.60;12.30;;;33.00;41.50;;;;;;5044123;28;20230;-55
2021/01/20 11:13:09;;;;;;;13.25;11.95;;;32.80;41.60;;;;;;5046405;28;20597;-58
2021/01/20 11:15:45;;;;;;;12.70;11.23;;;32.60;41.70;;;;;;5045984;28;20231;-56
2021/01/20 11:18:17;;;;;;;14.38;12.88;;;32.50;41.80;;;;;;5046710;28;20291;-53
2021/01/20 11:20:49;;;;;;;14.70;13.20;;;32.40;42.10;;;;;;5043456;28;20654;-54
2021/01/20 11:23:20;;;;;;;13.60;12.20;;;32.30;42.40;;;;;;5046090;28;20241;-50
2021/01/20 11:25:50;;;;;;;13.38;12.05;;;32.20;42.50;;;;;;5044803;28;20238;-56
2021/01/20 11:28:21;;;;;;;13.88;12.65;;;32.10;42.60;;;;;;5045666;28;20321;-55
2021/01/20 11:30:52;;;;;;;14.13;12.90;;;32.00;42.90;;;;;;5047613;28;20257;-57
2021/01/20 11:33:39;;;;;;;13.27;12.02;;;31.90;42.90;;;;;;5045275;28;20309;-57
2021/01/20 11:36:09;;;;;;;14.85;13.35;;;31.80;43.10;;;;;;5041450;28;20254;-55
2021/01/20 11:38:40;;;;;;;15.15;13.73;;;31.80;43.30;;;;;;5044627;28;20241;-56
2021/01/20 11:41:10;;;;;;;14.88;13.48;;;31.60;43.40;;;;;;5045813;28;20230;-54
2021/01/20 11:43:41;;;;;;;16.83;15.18;;;31.60;43.80;;;;;;5047878;28;20610;-55
2021/01/20 11:46:12;;;;;;;15.02;13.45;;;31.50;43.80;;;;;;5048673;28;20309;-55
2021/01/20 11:48:44;;;;;;;15.95;13.27;;;31.40;44.00;;;;;;5054622;28;20301;-54
2021/01/20 11:51:15;;;;;;;15.38;13.40;;;31.40;44.50;;;;;;5040991;28;20237;-56
2021/01/20 11:53:48;;;;;;;14.90;13.50;;;31.30;44.60;;;;;;5053550;28;20241;-55
2021/01/20 11:56:20;;;;;;;16.48;12.43;;;31.20;44.70;;;;;;5046018;28;20248;-55
2021/01/20 11:58:50;;;;;;;14.07;12.68;;;31.20;44.90;;;;;;5044726;28;20739;-56
2021/01/20 12:01:22;;;;;;;16.20;13.52;;;31.20;45.20;;;;;;5047985;28;20229;-56
2021/01/20 12:03:56;;;;;;;13.95;12.48;;;31.10;45.60;;;;;;5044108;28;20305;-56
2021/01/20 12:06:27;;;;;;;14.68;11.90;;;31.00;45.90;;;;;;5044961;28;20685;-55
2021/01/20 12:08:57;;;;;;;14.02;12.60;;;30.90;45.90;;;;;;5045601;28;20231;-56
2021/01/20 12:11:28;;;;;;;12.82;11.68;;;30.90;46.00;;;;;;5043228;28;20287;-55
2021/01/20 12:13:58;;;;;;;13.15;11.50;;;30.80;46.00;;;;;;5044382;28;20261;-55
2021/01/20 12:16:29;;;;;;;14.40;12.90;;;30.80;46.20;;;;;;5046979;28;20313;-57
2021/01/20 12:19:01;;;;;;;14.63;13.13;;;30.70;46.50;;;;;;5045172;28;20611;-57
2021/01/20 12:21:31;;;;;;;14.18;12.85;;;30.70;46.90;;;;;;5044226;28;20257;-57
2021/01/20 12:24:02;;;;;;;14.60;13.30;;;30.60;46.90;;;;;;5040047;28;20226;-55
2021/01/20 12:26:32;;;;;;;14.48;13.00;;;30.60;47.20;;;;;;5043258;28;20226;-57
2021/01/20 12:29:04;;;;;;;17.98;14.00;;;30.60;47.20;;;;;;5043555;28;20328;-55
2021/01/20 12:31:34;;;;;;;16.13;14.52;;;30.50;47.30;;;;;;5051029;28;20689;-57
2021/01/20 12:34:06;;;;;;;15.35;13.75;;;30.40;47.30;;;;;;5047690;28;20302;-54
2021/01/20 12:36:37;;;;;;;14.73;13.20;;;30.40;47.60;;;;;;5042503;28;20903;-52
2021/01/20 12:39:07;;;;;;;15.82;14.40;;;30.30;47.80;;;;;;5041766;28;20255;-56
2021/01/20 12:41:38;;;;;;;15.48;14.07;;;30.30;47.90;;;;;;5052231;28;20356;-57
2021/01/20 12:44:09;;;;;;;15.18;13.38;;;30.20;48.00;;;;;;5044203;28;20229;-54
2021/01/20 12:46:40;;;;;;;15.90;14.50;;;30.20;48.10;;;;;;5047495;28;20244;-54
2021/01/20 12:49:12;;;;;;;15.30;13.80;;;30.10;48.30;;;;;;5041086;28;20558;-56
2021/01/20 12:51:43;;;;;;;15.32;13.82;;;30.00;48.50;;;;;;5045182;28;20252;-57
2021/01/20 12:54:13;;;;;;;15.35;13.85;;;30.00;48.60;;;;;;5042496;28;20287;-53
2021/01/20 12:56:44;;;;;;;16.95;14.63;;;29.90;48.70;;;;;;5049179;28;20597;-53
2021/01/20 12:59:15;;;;;;;15.48;14.07;;;29.90;48.90;;;;;;5049109;28;20260;-55
2021/01/20 13:01:45;;;;;;;14.80;13.35;;;29.80;49.10;;;;;;5044987;28;20229;-54
2021/01/20 13:04:17;;;;;;;16.80;15.10;;;29.70;49.10;;;;;;5048984;28;20667;-55
2021/01/20 13:06:49;;;;;;;15.80;14.30;;;29.70;49.30;;;;;;5048192;28;20233;-57
2021/01/20 13:09:20;;;;;;;16.98;15.40;;;29.60;49.30;;;;;;5041180;28;20237;-56
2021/01/20 13:11:50;;;;;;;16.52;14.98;;;29.60;49.50;;;;;;5049484;28;20283;-52
2021/01/20 13:14:21;;;;;;;16.48;14.98;;;29.50;49.60;;;;;;5046544;28;20234;-56
2021/01/20 13:16:52;;;;;;;16.40;14.88;;;29.50;49.90;;;;;;5047402;28;20236;-56
2021/01/20 13:19:23;;;;;;;15.13;13.75;;;29.40;50.00;;;;;;5043097;28;20253;-53
2021/01/20 13:21:54;;;;;;;15.57;14.18;;;29.40;50.20;;;;;;5041260;28;20746;-52
2021/01/20 13:24:25;;;;;;;17.20;15.52;;;29.30;50.10;;;;;;5046080;28;20594;-53
2021/01/20 13:26:56;;;;;;;17.40;15.57;;;29.30;50.30;;;;;;5049333;28;20258;-55
2021/01/20 13:29:27;;;;;;;16.73;15.23;;;29.20;50.30;;;;;;5046939;28;20249;-57
2021/01/20 13:31:57;;;;;;;16.73;15.13;;;29.20;50.60;;;;;;5039299;28;20241;-53
2021/01/20 13:34:29;;;;;;;16.52;14.85;;;29.10;50.70;;;;;;5045528;28;20233;-54
2021/01/20 13:36:59;;;;;;;17.02;15.32;;;29.10;50.80;;;;;;5045865;28;20317;-54
2021/01/20 13:39:30;;;;;;;17.48;15.77;;;29.00;50.90;;;;;;5046337;28;20240;-57
2021/01/20 13:42:01;;;;;;;17.65;16.05;;;29.00;51.10;;;;;;5059649;28;20229;-56
2021/01/20 13:44:31;;;;;;;20.25;18.27;;;29.00;51.40;;;;;;5056917;28;20697;-57
2021/01/20 13:47:04;;;;;;;21.25;19.15;;;28.90;51.60;;;;;;5051289;28;20230;-57
2021/01/20 13:49:36;;;;;;;21.00;18.90;;;28.80;51.80;;;;;;5044468;28;20317;-55
2021/01/20 13:52:11;;;;;;;21.60;19.45;;;28.80;51.90;;;;;;5054272;28;20268;-56
2021/01/20 13:54:42;;;;;;;21.02;18.95;;;28.80;51.90;;;;;;5048746;28;20584;-56
2021/01/20 13:57:13;;;;;;;20.92;18.80;;;28.70;51.90;;;;;;5050053;28;20253;-57
2021/01/20 13:59:43;;;;;;;21.67;19.48;;;28.60;52.00;;;;;;5050700;28;20244;-57
2021/01/20 14:02:14;;;;;;;21.92;19.63;;;28.50;52.10;;;;;;5050866;28;20264;-56
2021/01/20 14:04:46;;;;;;;21.17;18.98;;;28.50;52.30;;;;;;5049383;28;20279;-54
2021/01/20 14:07:18;;;;;;;21.25;18.92;;;28.40;52.40;;;;;;5049368;28;20568;-53
2021/01/20 14:09:48;;;;;;;20.70;18.75;;;28.40;52.60;;;;;;5048522;28;21996;-56
2021/01/20 14:12:19;;;;;;;21.08;18.98;;;28.30;52.60;;;;;;5049024;28;20241;-53
2021/01/20 14:14:49;;;;;;;19.38;17.67;;;28.30;52.80;;;;;;5048268;28;20236;-53
2021/01/20 14:17:19;;;;;;;20.17;17.70;;;28.30;52.90;;;;;;5051104;28;20230;-56
2021/01/20 14:19:52;;;;;;;21.73;19.48;;;28.20;52.90;;;;;;5057174;28;20262;-54
2021/01/20 14:22:23;;;;;;;19.20;17.40;;;28.20;53.10;;;;;;5052718;28;20267;-55
2021/01/20 14:24:53;;;;;;;20.45;18.25;;;28.10;53.00;;;;;;5047209;28;20242;-52